createdAt,value
2022-08-18T00:00:55.027Z,21.00
2022-08-18T00:02:11.603Z,21.00
2022-08-18T00:03:27.337Z,21.00
2022-08-18T00:04:46.051Z,20.90
2022-08-18T00:05:51.420Z,21.00
2022-08-18T00:06:53.064Z,20.90
2022-08-18T00:07:54.890Z,20.90
2022-08-18T00:09:01.695Z,20.80
2022-08-18T00:10:06.178Z,20.80
2022-08-18T00:11:07.913Z,20.80
2022-08-18T00:12:21.449Z,20.80
2022-08-18T00:13:23.031Z,20.70
2022-08-18T00:14:24.632Z,20.70
2022-08-18T00:15:26.682Z,20.70
2022-08-18T00:16:28.502Z,20.60
2022-08-18T00:17:31.174Z,20.60
2022-08-18T00:18:32.807Z,20.60
2022-08-18T00:19:46.964Z,20.60
2022-08-18T00:20:49.664Z,20.60
2022-08-18T00:21:51.649Z,20.60
2022-08-18T00:22:53.611Z,20.60
2022-08-18T00:23:55.277Z,20.60
2022-08-18T00:24:58.200Z,20.60
2022-08-18T00:26:00.366Z,20.60
2022-08-18T00:27:02.179Z,20.60
2022-08-18T00:28:05.088Z,20.60
2022-08-18T00:29:06.679Z,20.60
2022-08-18T00:30:13.382Z,20.60
2022-08-18T00:31:15.003Z,20.60
2022-08-18T00:32:21.084Z,20.60
2022-08-18T00:33:23.083Z,20.60
2022-08-18T00:34:25.012Z,20.60
2022-08-18T00:35:31.064Z,20.60
2022-08-18T00:36:34.680Z,20.60
2022-08-18T00:37:36.529Z,20.50
2022-08-18T00:38:39.242Z,20.50
2022-08-18T00:39:43.565Z,20.50
2022-08-18T00:40:54.096Z,20.50
2022-08-18T00:41:56.255Z,20.50
2022-08-18T00:43:04.773Z,20.50
2022-08-18T00:44:06.420Z,20.50
2022-08-18T00:45:08.918Z,20.50
2022-08-18T00:46:17.376Z,20.40
2022-08-18T00:47:32.963Z,20.40
2022-08-18T00:48:40.730Z,20.40
2022-08-18T00:49:53.272Z,20.40
2022-08-18T00:50:59.166Z,20.40
2022-08-18T00:52:04.328Z,20.40
2022-08-18T00:53:15.147Z,20.40
2022-08-18T00:54:27.466Z,20.40
2022-08-18T00:55:32.295Z,20.40
2022-08-18T00:56:46.126Z,20.50
2022-08-18T00:57:50.798Z,20.50
2022-08-18T00:59:07.928Z,20.50
2022-08-18T01:00:12.930Z,20.50
2022-08-18T01:01:16.796Z,20.60
2022-08-18T01:02:29.725Z,20.50
2022-08-18T01:03:33.726Z,20.50
2022-08-18T01:04:42.448Z,20.50
2022-08-18T01:05:53.469Z,20.50
2022-08-18T01:07:00.639Z,20.50
2022-08-18T01:08:03.171Z,20.50
2022-08-18T01:09:05.488Z,20.50
2022-08-18T01:10:09.653Z,20.50
2022-08-18T01:11:11.248Z,20.40
2022-08-18T01:12:43.801Z,20.50
2022-08-18T01:13:38.633Z,20.50
2022-08-18T01:14:40.432Z,20.50
2022-08-18T01:15:42.210Z,20.60
2022-08-18T01:17:04.574Z,20.50
2022-08-18T01:18:29.993Z,20.50
2022-08-18T01:19:50.858Z,20.50
2022-08-18T01:21:27.357Z,20.40
2022-08-18T01:22:55.719Z,20.40
2022-08-18T01:23:58.036Z,20.30
2022-08-18T01:25:39.686Z,20.30
2022-08-18T01:26:46.432Z,20.30
2022-08-18T01:27:48.093Z,20.30
2022-08-18T01:28:50.549Z,20.30
2022-08-18T01:29:52.133Z,20.30
2022-08-18T01:30:59.049Z,20.30
2022-08-18T01:32:00.667Z,20.30
2022-08-18T01:33:02.231Z,20.30
2022-08-18T01:34:06.377Z,20.20
2022-08-18T01:35:10.329Z,20.20
2022-08-18T01:36:18.536Z,20.20
2022-08-18T01:37:22.978Z,20.20
2022-08-18T01:38:24.959Z,20.20
2022-08-18T01:41:24.149Z,20.30
2022-08-18T01:41:27.332Z,20.30
2022-08-18T01:42:13.254Z,20.30
2022-08-18T01:43:15.668Z,20.30
2022-08-18T01:44:17.346Z,20.20
2022-08-18T01:45:20.556Z,20.10
2022-08-18T01:46:23.119Z,20.10
2022-08-18T01:47:24.839Z,20.10
2022-08-18T01:48:27.450Z,20.10
2022-08-18T01:49:29.160Z,20.00
2022-08-18T01:50:34.133Z,20.00
2022-08-18T01:51:40.362Z,20.00
2022-08-18T01:52:42.941Z,20.00
2022-08-18T01:53:45.027Z,20.10
2022-08-18T01:54:48.126Z,20.10
2022-08-18T01:55:50.681Z,20.10
2022-08-18T01:56:53.357Z,20.10
2022-08-18T01:57:55.663Z,20.10
2022-08-18T01:58:57.288Z,20.10
2022-08-18T02:00:01.032Z,20.10
2022-08-18T02:01:03.842Z,20.10
2022-08-18T02:02:05.765Z,20.10
2022-08-18T02:03:11.315Z,20.00
2022-08-18T02:04:33.868Z,20.00
2022-08-18T02:05:49.662Z,20.00
2022-08-18T02:06:51.456Z,20.00
2022-08-18T02:07:54.168Z,20.00
2022-08-18T02:08:56.178Z,20.00
2022-08-18T02:09:59.272Z,20.00
2022-08-18T02:11:01.505Z,19.90
2022-08-18T02:12:03.726Z,19.90
2022-08-18T02:13:05.884Z,19.80
2022-08-18T02:14:07.469Z,19.80
2022-08-18T02:15:10.147Z,19.80
2022-08-18T02:16:11.716Z,19.80
2022-08-18T02:17:13.717Z,19.80
2022-08-18T02:18:41.402Z,19.70
2022-08-18T02:19:42.919Z,19.80
2022-08-18T02:20:44.872Z,19.70
2022-08-18T02:21:46.520Z,19.80
2022-08-18T02:22:48.876Z,19.80
2022-08-18T02:23:53.623Z,19.80
2022-08-18T02:24:57.208Z,19.70
2022-08-18T02:25:59.121Z,19.70
2022-08-18T02:27:00.777Z,19.70
2022-08-18T02:28:02.743Z,19.70
2022-08-18T02:29:04.479Z,19.70
2022-08-18T02:30:11.361Z,19.70
2022-08-18T02:31:18.787Z,19.60
2022-08-18T02:32:20.392Z,19.60
2022-08-18T02:33:22.014Z,19.60
2022-08-18T02:34:23.928Z,19.50
2022-08-18T02:35:25.583Z,19.50
2022-08-18T02:36:28.282Z,19.60
2022-08-18T02:37:31.144Z,19.60
2022-08-18T02:38:33.463Z,19.60
2022-08-18T02:39:37.873Z,19.60
2022-08-18T02:40:39.603Z,19.60
2022-08-18T02:41:42.033Z,19.60
2022-08-18T02:42:45.546Z,19.70
2022-08-18T02:43:48.351Z,19.70
2022-08-18T02:44:50.174Z,19.70
2022-08-18T02:45:51.852Z,19.70
2022-08-18T02:46:54.518Z,19.70
2022-08-18T02:47:56.843Z,19.70
2022-08-18T02:49:00.140Z,19.70
2022-08-18T02:50:01.823Z,19.70
2022-08-18T02:51:16.038Z,19.70
2022-08-18T02:52:17.835Z,19.70
2022-08-18T02:53:22.626Z,19.70
2022-08-18T02:54:25.108Z,19.70
2022-08-18T02:55:29.163Z,19.70
2022-08-18T02:56:41.508Z,19.60
2022-08-18T02:57:46.042Z,19.60
2022-08-18T02:58:48.356Z,19.60
2022-08-18T02:59:49.996Z,19.50
2022-08-18T03:00:51.584Z,19.50
2022-08-18T03:01:55.643Z,19.50
2022-08-18T03:02:57.376Z,19.50
2022-08-18T03:04:00.506Z,19.50
2022-08-18T03:05:02.146Z,19.50
2022-08-18T03:06:04.739Z,19.40
2022-08-18T03:07:07.650Z,19.50
2022-08-18T03:08:10.525Z,19.50
2022-08-18T03:09:15.062Z,19.40
2022-08-18T03:10:31.430Z,19.40
2022-08-18T03:11:36.487Z,19.40
2022-08-18T03:12:38.080Z,19.40
2022-08-18T03:13:39.688Z,19.30
2022-08-18T03:14:41.261Z,19.30
2022-08-18T03:15:44.595Z,19.30
2022-08-18T03:17:56.279Z,19.20
2022-08-18T03:18:58.291Z,19.20
2022-08-18T03:19:59.979Z,19.20
2022-08-18T03:21:07.856Z,19.20
2022-08-18T03:22:27.471Z,19.30
2022-08-18T03:23:31.144Z,19.30
2022-08-18T03:24:33.314Z,19.30
2022-08-18T03:25:35.187Z,19.30
2022-08-18T03:26:41.654Z,19.30
2022-08-18T03:27:43.306Z,19.40
2022-08-18T03:28:47.323Z,19.30
2022-08-18T03:29:50.178Z,19.40
2022-08-18T03:30:51.760Z,19.40
2022-08-18T03:31:53.455Z,19.30
2022-08-18T03:32:55.124Z,19.30
2022-08-18T03:33:59.355Z,19.20
2022-08-18T03:35:01.587Z,19.30
2022-08-18T03:36:08.243Z,19.30
2022-08-18T03:37:10.286Z,19.30
2022-08-18T03:38:11.998Z,19.30
2022-08-18T03:39:13.932Z,19.40
2022-08-18T03:40:15.633Z,19.30
2022-08-18T03:41:43.805Z,19.30
2022-08-18T03:42:40.967Z,19.30
2022-08-18T03:43:50.682Z,19.30
2022-08-18T03:44:53.343Z,19.30
2022-08-18T03:45:55.242Z,19.30
2022-08-18T03:46:57.426Z,19.20
2022-08-18T03:48:00.591Z,19.20
2022-08-18T03:49:02.268Z,19.30
2022-08-18T03:50:04.111Z,19.30
2022-08-18T03:51:08.301Z,19.30
2022-08-18T03:52:10.435Z,19.30
2022-08-18T03:53:12.099Z,19.40
2022-08-18T03:54:16.392Z,19.40
2022-08-18T03:55:18.583Z,19.30
2022-08-18T03:56:24.913Z,19.30
2022-08-18T03:57:26.516Z,19.30
2022-08-18T03:58:28.443Z,19.30
2022-08-18T03:59:32.168Z,19.30
2022-08-18T04:00:37.601Z,19.30
2022-08-18T04:01:42.210Z,19.30
2022-08-18T04:02:43.822Z,19.20
2022-08-18T04:03:47.664Z,19.20
2022-08-18T04:04:51.370Z,19.20
2022-08-18T04:05:53.075Z,19.10
2022-08-18T04:06:58.552Z,19.10
2022-08-18T04:08:00.536Z,19.10
2022-08-18T04:09:05.240Z,19.20
2022-08-18T04:10:07.290Z,19.10
2022-08-18T04:11:20.951Z,19.20
2022-08-18T04:12:22.847Z,19.20
2022-08-18T04:13:24.498Z,19.20
2022-08-18T04:14:32.730Z,19.20
2022-08-18T04:15:34.398Z,19.20
2022-08-18T04:16:38.179Z,19.20
2022-08-18T04:18:03.588Z,19.20
2022-08-18T04:19:04.422Z,19.10
2022-08-18T04:20:06.367Z,19.20
2022-08-18T04:21:10.673Z,19.10
2022-08-18T04:22:18.272Z,19.10
2022-08-18T04:23:21.134Z,19.10
2022-08-18T04:24:22.914Z,19.10
2022-08-18T04:25:29.514Z,19.10
2022-08-18T04:26:45.984Z,19.10
2022-08-18T04:27:47.621Z,19.10
2022-08-18T04:28:49.276Z,19.20
2022-08-18T04:29:50.934Z,19.10
2022-08-18T04:30:54.212Z,19.20
2022-08-18T04:31:56.107Z,19.20
2022-08-18T04:32:57.906Z,19.20
2022-08-18T04:34:01.330Z,19.10
2022-08-18T04:35:04.184Z,19.20
2022-08-18T04:36:11.298Z,19.20
2022-08-18T04:37:15.292Z,19.20
2022-08-18T04:38:16.860Z,19.20
2022-08-18T04:39:18.623Z,19.20
2022-08-18T04:40:25.063Z,19.20
2022-08-18T04:41:27.683Z,19.20
2022-08-18T04:42:29.519Z,19.30
2022-08-18T04:43:32.489Z,19.30
2022-08-18T04:44:37.777Z,19.20
2022-08-18T04:45:40.053Z,19.20
2022-08-18T04:46:46.132Z,19.30
2022-08-18T04:47:47.744Z,19.30
2022-08-18T04:48:50.739Z,19.20
2022-08-18T04:49:52.373Z,19.20
2022-08-18T04:50:53.948Z,19.30
2022-08-18T04:52:36.139Z,19.20
2022-08-18T04:53:45.824Z,19.20
2022-08-18T04:54:47.419Z,19.30
2022-08-18T04:55:53.594Z,19.30
2022-08-18T04:56:55.215Z,19.30
2022-08-18T04:57:59.231Z,19.30
2022-08-18T04:59:14.642Z,19.30
2022-08-18T05:00:19.548Z,19.30
2022-08-18T05:01:27.226Z,19.30
2022-08-18T05:02:29.271Z,19.40
2022-08-18T05:03:31.001Z,19.40
2022-08-18T05:04:34.711Z,19.40
2022-08-18T05:05:36.481Z,19.40
2022-08-18T05:06:38.088Z,19.40
2022-08-18T05:07:44.879Z,19.40
2022-08-18T05:08:48.267Z,19.40
2022-08-18T05:09:50.690Z,19.40
2022-08-18T05:11:03.166Z,19.30
2022-08-18T05:12:07.704Z,19.40
2022-08-18T05:13:09.767Z,19.40
2022-08-18T05:14:11.647Z,19.30
2022-08-18T05:15:13.225Z,19.30
2022-08-18T05:16:27.249Z,19.30
2022-08-18T05:17:30.567Z,19.30
2022-08-18T05:18:40.337Z,19.40
2022-08-18T05:19:44.732Z,19.30
2022-08-18T05:20:46.396Z,19.30
2022-08-18T05:21:51.751Z,19.30
2022-08-18T05:22:55.772Z,19.30
2022-08-18T05:23:57.431Z,19.30
2022-08-18T05:25:00.124Z,19.30
2022-08-18T05:26:06.447Z,19.30
2022-08-18T05:27:08.174Z,19.30
2022-08-18T05:28:09.874Z,19.30
2022-08-18T05:29:18.584Z,19.40
2022-08-18T05:30:21.686Z,19.40
2022-08-18T05:31:25.626Z,19.40
2022-08-18T05:32:46.979Z,19.40
2022-08-18T05:33:51.806Z,19.40
2022-08-18T05:34:53.448Z,19.40
2022-08-18T05:36:05.281Z,19.50
2022-08-18T05:37:20.296Z,19.60
2022-08-18T05:38:39.542Z,19.60
2022-08-18T05:39:58.526Z,19.60
2022-08-18T05:41:19.527Z,19.70
2022-08-18T05:42:22.577Z,19.70
2022-08-18T05:43:24.566Z,19.70
2022-08-18T05:44:30.531Z,19.80
2022-08-18T05:45:34.728Z,19.80
2022-08-18T05:46:54.751Z,19.90
2022-08-18T05:48:00.215Z,19.90
2022-08-18T05:49:02.096Z,19.80
2022-08-18T05:50:09.394Z,19.80
2022-08-18T05:51:22.730Z,19.90
2022-08-18T05:52:38.333Z,20.00
2022-08-18T05:54:04.541Z,20.00
2022-08-18T05:55:32.195Z,20.10
2022-08-18T05:56:49.236Z,20.10
2022-08-18T05:57:56.730Z,20.10
2022-08-18T05:59:01.242Z,20.20
2022-08-18T06:00:05.541Z,20.20
2022-08-18T06:01:15.749Z,20.30
2022-08-18T06:02:45.835Z,20.30
2022-08-18T06:03:52.901Z,20.30
2022-08-18T06:04:59.962Z,20.30
2022-08-18T06:06:06.170Z,20.40
2022-08-18T06:07:11.848Z,20.30
2022-08-18T06:08:14.896Z,20.30
2022-08-18T06:09:34.890Z,20.40
2022-08-18T06:10:38.394Z,20.40
2022-08-18T06:11:40.437Z,20.40
2022-08-18T06:12:47.269Z,20.40
2022-08-18T06:13:50.563Z,20.40
2022-08-18T06:15:10.203Z,20.50
2022-08-18T06:16:23.602Z,20.50
2022-08-18T06:17:43.872Z,20.60
2022-08-18T06:19:10.960Z,20.60
2022-08-18T06:20:23.262Z,20.60
2022-08-18T06:21:34.490Z,20.60
2022-08-18T06:23:24.316Z,20.60
2022-08-18T06:24:41.534Z,20.70
2022-08-18T06:26:01.660Z,20.70
2022-08-18T06:27:11.994Z,20.70
2022-08-18T06:28:16.087Z,20.70
2022-08-18T06:29:34.390Z,20.70
2022-08-18T06:30:42.065Z,20.70
2022-08-18T06:31:46.554Z,20.90
2022-08-18T06:33:06.253Z,20.80
2022-08-18T06:34:22.794Z,20.80
2022-08-18T06:35:38.508Z,20.80
2022-08-18T06:36:54.866Z,20.90
2022-08-18T06:38:34.443Z,21.00
2022-08-18T06:39:47.304Z,21.00
2022-08-18T06:40:50.095Z,21.10
2022-08-18T06:41:53.684Z,21.10
2022-08-18T06:42:55.524Z,21.20
2022-08-18T06:44:07.351Z,21.20
2022-08-18T06:45:12.818Z,21.30
2022-08-18T06:46:20.155Z,21.30
2022-08-18T06:47:30.574Z,21.40
2022-08-18T06:48:42.110Z,21.50
2022-08-18T06:50:06.732Z,21.40
2022-08-18T06:51:10.119Z,21.50
2022-08-18T06:52:20.544Z,21.50
2022-08-18T06:53:27.363Z,21.60
2022-08-18T06:54:30.605Z,21.60
2022-08-18T06:55:42.611Z,21.60
2022-08-18T06:56:44.194Z,21.70
2022-08-18T06:58:01.823Z,21.70
2022-08-18T06:59:24.893Z,21.70
2022-08-18T07:00:34.133Z,21.60
2022-08-18T07:01:38.326Z,21.60
2022-08-18T07:03:04.718Z,21.60
2022-08-18T07:04:06.805Z,21.60
2022-08-18T07:05:14.260Z,21.60
2022-08-18T07:06:21.757Z,21.60
2022-08-18T07:07:40.403Z,21.60
2022-08-18T07:08:55.961Z,21.70
2022-08-18T07:09:57.598Z,21.70
2022-08-18T07:11:22.233Z,21.80
2022-08-18T07:12:32.578Z,21.90
2022-08-18T07:13:38.947Z,22.00
2022-08-18T07:14:53.502Z,22.00
2022-08-18T07:16:15.768Z,22.00
2022-08-18T07:17:43.576Z,22.10
2022-08-18T07:18:46.544Z,22.00
2022-08-18T07:20:01.235Z,22.00
2022-08-18T07:21:02.934Z,22.10
2022-08-18T07:22:14.667Z,22.10
2022-08-18T07:23:35.154Z,22.10
2022-08-18T07:24:44.075Z,22.10
2022-08-18T07:25:46.565Z,22.10
2022-08-18T07:26:59.091Z,22.20
2022-08-18T07:28:02.554Z,22.30
2022-08-18T07:29:15.353Z,22.30
2022-08-18T07:30:19.452Z,22.30
2022-08-18T07:31:36.515Z,22.30
2022-08-18T07:32:48.089Z,22.30
2022-08-18T07:34:12.488Z,22.30
2022-08-18T07:35:39.209Z,22.30
2022-08-18T07:36:58.153Z,22.30
2022-08-18T07:38:43.505Z,22.40
2022-08-18T07:39:55.832Z,22.50
2022-08-18T07:41:20.591Z,22.50
2022-08-18T07:43:01.428Z,22.50
2022-08-18T07:44:23.654Z,22.60
2022-08-18T07:45:34.138Z,22.70
2022-08-18T07:46:45.488Z,22.70
2022-08-18T07:48:15.749Z,22.70
2022-08-18T07:49:24.889Z,22.80
2022-08-18T07:50:58.795Z,22.80
2022-08-18T07:52:04.041Z,22.80
2022-08-18T07:53:11.952Z,22.90
2022-08-18T07:55:55.755Z,22.80
2022-08-18T07:57:27.195Z,22.90
2022-08-18T07:58:32.649Z,22.90
2022-08-18T08:00:10.563Z,22.90
2022-08-18T08:01:37.011Z,23.00
2022-08-18T08:03:12.507Z,22.90
2022-08-18T08:04:39.647Z,23.00
2022-08-18T08:06:20.426Z,23.00
2022-08-18T08:07:29.908Z,22.90
2022-08-18T08:08:40.285Z,22.90
2022-08-18T08:09:58.305Z,22.90
2022-08-18T08:11:20.664Z,22.80
2022-08-18T08:12:31.190Z,22.80
2022-08-18T08:13:55.323Z,22.80
2022-08-18T08:15:09.899Z,22.90
2022-08-18T08:16:35.397Z,23.00
2022-08-18T08:17:57.921Z,23.10
2022-08-18T08:19:36.598Z,23.20
2022-08-18T08:20:49.366Z,23.30
2022-08-18T08:22:03.904Z,23.50
2022-08-18T08:23:17.811Z,23.60
2022-08-18T08:24:39.823Z,23.50
2022-08-18T08:25:54.646Z,23.60
2022-08-18T08:27:10.101Z,23.50
2022-08-18T08:28:26.896Z,23.50
2022-08-18T08:29:48.983Z,23.50
2022-08-18T08:31:33.470Z,23.60
2022-08-18T08:32:36.734Z,23.70
2022-08-18T08:33:55.394Z,23.90
2022-08-18T08:35:04.991Z,24.00
2022-08-18T08:36:18.663Z,24.00
2022-08-18T08:37:36.110Z,24.00
2022-08-18T08:39:04.086Z,24.00
2022-08-18T08:40:28.317Z,24.10
2022-08-18T08:41:44.808Z,24.10
2022-08-18T08:42:46.494Z,24.20
2022-08-18T08:44:01.502Z,24.30
2022-08-18T08:45:11.206Z,24.30
2022-08-18T08:46:19.746Z,24.20
2022-08-18T08:47:37.142Z,24.20
2022-08-18T08:48:49.332Z,24.20
2022-08-18T08:50:09.407Z,24.10
2022-08-18T08:51:51.147Z,24.00
2022-08-18T08:53:06.014Z,23.80
2022-08-18T08:54:17.734Z,23.70
2022-08-18T08:55:32.719Z,23.80
2022-08-18T08:56:42.853Z,23.90
2022-08-18T08:57:54.577Z,23.90
2022-08-18T08:59:05.606Z,23.80
2022-08-18T09:00:10.778Z,23.90
2022-08-18T09:01:40.672Z,24.10
2022-08-18T09:03:11.302Z,24.20
2022-08-18T09:04:39.638Z,24.20
2022-08-18T09:10:17.978Z,24.30
2022-08-18T09:14:00.263Z,24.50
2022-08-18T09:24:55.678Z,24.60
2022-08-18T09:33:54.614Z,24.60
2022-08-18T09:37:02.342Z,24.30
2022-08-18T09:38:33.711Z,24.30
2022-08-18T09:42:00.456Z,24.30
2022-08-18T09:43:20.165Z,24.30
2022-08-18T09:44:40.983Z,24.30
2022-08-18T09:45:47.372Z,24.30
2022-08-18T09:46:52.089Z,24.20
2022-08-18T09:47:53.866Z,24.10
2022-08-18T09:49:42.212Z,24.00
2022-08-18T09:51:20.860Z,24.10
2022-08-18T09:52:27.630Z,24.20
2022-08-18T09:53:47.726Z,24.20
2022-08-18T09:54:56.960Z,24.20
2022-08-18T09:56:04.881Z,24.30
2022-08-18T09:57:19.622Z,24.40
2022-08-18T09:58:26.219Z,24.40
2022-08-18T09:59:36.136Z,24.40
2022-08-18T10:00:38.318Z,24.50
2022-08-18T10:01:52.545Z,24.50
2022-08-18T10:02:55.351Z,24.30
2022-08-18T10:04:15.419Z,24.30
2022-08-18T10:05:19.454Z,24.30
2022-08-18T10:06:23.825Z,24.30
2022-08-18T10:09:26.693Z,24.10
2022-08-18T10:11:02.327Z,23.90
2022-08-18T10:12:41.300Z,23.80
2022-08-18T10:14:13.888Z,23.60
2022-08-18T10:15:41.105Z,23.60
2022-08-18T10:17:13.354Z,23.50
2022-08-18T10:18:22.883Z,23.40
2022-08-18T10:19:39.759Z,23.30
2022-08-18T10:23:09.873Z,23.20
2022-08-18T10:24:35.173Z,23.20
2022-08-18T10:25:41.321Z,23.20
2022-08-18T10:26:54.941Z,23.10
2022-08-18T10:27:57.717Z,23.10
2022-08-18T10:29:36.708Z,23.10
2022-08-18T10:30:56.983Z,23.10
2022-08-18T10:32:01.976Z,23.20
2022-08-18T10:33:17.883Z,23.20
2022-08-18T10:34:51.827Z,23.30
2022-08-18T10:36:00.227Z,23.30
2022-08-18T10:37:31.082Z,23.30
2022-08-18T10:38:49.325Z,23.40
2022-08-18T10:39:56.130Z,23.40
2022-08-18T10:41:10.155Z,23.50
2022-08-18T10:42:24.159Z,23.60
2022-08-18T10:44:42.570Z,23.60
2022-08-18T10:47:34.006Z,23.70
2022-08-18T10:48:40.096Z,23.70
2022-08-18T10:49:48.287Z,23.80
2022-08-18T10:51:03.007Z,23.80
2022-08-18T10:52:11.118Z,23.80
2022-08-18T10:53:44.426Z,23.90
2022-08-18T10:55:06.248Z,23.90
2022-08-18T10:56:45.959Z,23.90
2022-08-18T10:58:28.289Z,23.80
2022-08-18T10:59:52.243Z,23.80
2022-08-18T11:01:11.538Z,23.80
2022-08-18T11:02:26.020Z,23.70
2022-08-18T11:05:22.258Z,23.70
2022-08-18T11:06:26.451Z,23.70
2022-08-18T11:07:34.329Z,23.70
2022-08-18T11:08:43.878Z,23.70
2022-08-18T11:10:04.644Z,23.80
2022-08-18T11:11:33.493Z,23.80
2022-08-18T11:12:45.955Z,23.80
2022-08-18T11:18:31.450Z,23.70
2022-08-18T11:19:42.186Z,23.70
2022-08-18T11:22:32.554Z,23.60
2022-08-18T11:23:35.316Z,23.60
2022-08-18T11:27:36.532Z,23.50
2022-08-18T11:28:45.066Z,23.40
2022-08-18T11:29:49.434Z,23.40
2022-08-18T11:30:56.826Z,23.50
2022-08-18T11:33:23.143Z,23.40
2022-08-18T11:34:38.363Z,23.50
2022-08-18T11:35:58.526Z,23.50
2022-08-18T11:37:04.888Z,23.50
2022-08-18T11:39:47.398Z,23.70
2022-08-18T11:41:13.079Z,23.80
2022-08-18T11:42:25.144Z,23.80
2022-08-18T11:43:41.215Z,23.80
2022-08-18T11:46:29.649Z,23.90
2022-08-18T11:47:33.895Z,23.80
2022-08-18T11:48:51.036Z,23.90
2022-08-18T11:49:59.256Z,23.90
2022-08-18T11:54:25.018Z,23.90
2022-08-18T11:55:37.023Z,24.10
2022-08-18T11:56:40.326Z,24.10
2022-08-18T11:57:59.785Z,24.10
2022-08-18T11:59:07.755Z,24.20
2022-08-18T12:00:42.891Z,24.20
2022-08-18T12:01:51.305Z,24.20
2022-08-18T12:03:28.431Z,24.20
2022-08-18T12:04:42.893Z,24.20
2022-08-18T12:07:26.882Z,24.40
2022-08-18T12:08:58.177Z,24.50
2022-08-18T12:10:26.296Z,24.50
2022-08-18T12:11:49.082Z,24.60
2022-08-18T12:12:54.199Z,24.50
2022-08-18T12:14:32.590Z,24.50
2022-08-18T12:16:55.648Z,24.50
2022-08-18T12:17:58.427Z,24.30
2022-08-18T12:20:24.216Z,24.30
2022-08-18T12:21:26.678Z,24.40
2022-08-18T12:22:32.931Z,24.40
2022-08-18T12:23:44.697Z,24.40
2022-08-18T12:25:00.003Z,24.40
2022-08-18T12:26:04.007Z,24.40
2022-08-18T12:27:20.847Z,24.40
2022-08-18T12:28:28.243Z,24.30
2022-08-18T12:29:43.629Z,24.40
2022-08-18T12:30:45.913Z,24.40
2022-08-18T12:31:51.570Z,24.30
2022-08-18T12:33:05.343Z,24.40
2022-08-18T12:34:13.582Z,24.30
2022-08-18T12:35:21.762Z,24.30
2022-08-18T12:36:25.017Z,24.40
2022-08-18T12:37:58.527Z,24.40
2022-08-18T12:38:56.121Z,24.40
2022-08-18T12:40:02.904Z,24.40
2022-08-18T12:41:12.380Z,24.40
2022-08-18T12:43:00.114Z,24.40
2022-08-18T12:44:03.196Z,24.50
2022-08-18T12:45:07.695Z,24.50
2022-08-18T12:46:12.935Z,24.60
2022-08-18T12:47:21.758Z,24.60
2022-08-18T12:48:24.906Z,24.60
2022-08-18T12:49:31.285Z,24.70
2022-08-18T12:52:00.642Z,24.70
2022-08-18T12:53:08.167Z,24.60
2022-08-18T12:54:12.625Z,24.60
2022-08-18T12:55:21.444Z,24.60
2022-08-18T12:56:30.688Z,24.50
2022-08-18T12:57:53.468Z,24.30
2022-08-18T12:59:24.344Z,24.30
2022-08-18T13:01:48.984Z,24.30
2022-08-18T13:02:55.618Z,24.30
2022-08-18T13:04:13.046Z,24.30
2022-08-18T13:05:26.646Z,24.30
2022-08-18T13:06:31.297Z,24.30
2022-08-18T13:07:33.760Z,24.20
2022-08-18T13:08:38.160Z,24.20
2022-08-18T13:09:53.702Z,24.20
2022-08-18T13:10:58.201Z,24.10
2022-08-18T13:12:37.899Z,24.00
2022-08-18T13:17:48.961Z,24.10
2022-08-18T13:18:50.933Z,24.20
2022-08-18T13:19:54.306Z,24.30
2022-08-18T13:20:59.229Z,24.40
2022-08-18T13:22:32.281Z,24.40
2022-08-18T13:23:35.306Z,24.40
2022-08-18T13:24:37.568Z,24.40
2022-08-18T13:25:42.000Z,24.40
2022-08-18T13:26:49.578Z,24.30
2022-08-18T13:27:58.128Z,24.40
2022-08-18T13:29:01.401Z,24.30
2022-08-18T13:30:29.787Z,24.40
2022-08-18T13:31:29.969Z,24.40
2022-08-18T13:32:47.184Z,24.40
2022-08-18T13:34:00.007Z,24.40
2022-08-18T13:35:13.275Z,24.50
2022-08-18T13:36:15.833Z,24.50
2022-08-18T13:37:18.713Z,24.40
2022-08-18T13:38:27.381Z,24.40
2022-08-18T13:39:33.680Z,24.40
2022-08-18T13:40:37.981Z,24.40
2022-08-18T13:42:21.609Z,24.30
2022-08-18T13:43:34.527Z,24.30
2022-08-18T13:44:37.092Z,24.30
2022-08-18T13:45:39.762Z,24.20
2022-08-18T13:46:48.292Z,24.00
2022-08-18T13:47:51.278Z,24.00
2022-08-18T13:48:54.120Z,23.90
2022-08-18T13:49:58.689Z,23.90
2022-08-18T13:51:03.346Z,23.80
2022-08-18T13:52:12.206Z,23.70
2022-08-18T13:53:29.678Z,23.60
2022-08-18T13:56:51.662Z,23.60
2022-08-18T13:57:55.533Z,23.70
2022-08-18T13:58:57.871Z,23.70
2022-08-18T14:00:00.443Z,23.70
2022-08-18T14:01:42.159Z,23.70
2022-08-18T14:02:30.482Z,23.60
2022-08-18T14:03:42.778Z,23.60
2022-08-18T14:04:51.685Z,23.70
2022-08-18T14:06:01.645Z,23.60
2022-08-18T14:07:09.659Z,23.70
2022-08-18T14:08:24.855Z,23.80
2022-08-18T14:09:46.303Z,23.80
2022-08-18T14:11:06.222Z,23.90
2022-08-18T14:12:36.503Z,23.90
2022-08-18T14:15:08.839Z,24.00
2022-08-18T14:16:18.611Z,24.10
2022-08-18T14:17:24.476Z,24.10
2022-08-18T14:18:28.844Z,24.00
2022-08-18T14:19:51.175Z,24.00
2022-08-18T14:21:12.669Z,24.00
2022-08-18T14:22:33.489Z,24.10
2022-08-18T14:24:06.469Z,24.10
2022-08-18T14:25:31.640Z,24.10
2022-08-18T14:26:50.540Z,24.20
2022-08-18T14:27:56.547Z,24.20
2022-08-18T14:28:59.742Z,24.20
2022-08-18T14:30:08.172Z,24.30
2022-08-18T14:31:14.367Z,24.30
2022-08-18T14:32:29.342Z,24.40
2022-08-18T14:33:49.879Z,24.50
2022-08-18T14:34:58.547Z,24.50
2022-08-18T14:36:09.283Z,24.50
2022-08-18T14:37:12.154Z,24.50
2022-08-18T14:38:16.277Z,24.40
2022-08-18T14:39:18.312Z,24.40
2022-08-18T14:40:20.440Z,24.50
2022-08-18T14:41:25.553Z,24.60
2022-08-18T14:42:32.822Z,24.60
2022-08-18T14:44:00.495Z,24.60
2022-08-18T14:45:16.963Z,24.60
2022-08-18T14:47:37.333Z,24.70
2022-08-18T14:49:04.071Z,24.70
2022-08-18T14:50:06.942Z,24.80
2022-08-18T14:51:12.248Z,24.70
2022-08-18T14:52:15.736Z,24.80
2022-08-18T14:53:21.291Z,24.80
2022-08-18T14:54:23.835Z,24.80
2022-08-18T14:55:31.013Z,24.80
2022-08-18T14:56:33.782Z,24.80
2022-08-18T14:57:42.949Z,24.90
2022-08-18T14:58:47.634Z,24.90
2022-08-18T14:59:49.990Z,24.80
2022-08-18T15:00:56.649Z,24.80
2022-08-18T15:01:59.438Z,24.80
2022-08-18T15:03:02.238Z,24.80
2022-08-18T15:04:18.684Z,24.80
2022-08-18T15:05:24.689Z,24.70
2022-08-18T15:06:27.498Z,24.50
2022-08-18T15:07:32.732Z,24.40
2022-08-18T15:08:36.139Z,24.20
2022-08-18T15:09:38.792Z,24.10
2022-08-18T15:10:41.898Z,24.10
2022-08-18T15:11:48.534Z,24.00
2022-08-18T15:17:28.768Z,23.80
2022-08-18T15:18:31.484Z,23.80
2022-08-18T15:20:00.434Z,23.80
2022-08-18T15:21:34.697Z,23.80
2022-08-18T15:23:04.022Z,23.70
2022-08-18T15:24:26.524Z,23.70
2022-08-18T15:25:42.077Z,23.80
2022-08-18T15:26:44.548Z,23.90
2022-08-18T15:27:46.827Z,23.90
2022-08-18T15:28:54.519Z,23.80
2022-08-18T15:30:06.884Z,23.90
2022-08-18T15:31:49.553Z,23.90
2022-08-18T15:32:33.220Z,24.00
2022-08-18T15:33:36.178Z,23.90
2022-08-18T15:34:46.080Z,23.90
2022-08-18T15:35:49.623Z,23.90
2022-08-18T15:36:53.332Z,24.00
2022-08-18T15:37:56.311Z,24.00
2022-08-18T15:39:04.207Z,23.90
2022-08-18T15:40:25.736Z,24.00
2022-08-18T15:42:57.051Z,23.80
2022-08-18T15:44:06.361Z,23.80
2022-08-18T15:45:11.537Z,23.80
2022-08-18T15:46:16.838Z,23.80
2022-08-18T15:47:21.048Z,23.90
2022-08-18T15:48:24.637Z,23.80
2022-08-18T15:49:27.025Z,23.80
2022-08-18T15:50:29.566Z,23.80
2022-08-18T15:51:41.007Z,23.80
2022-08-18T15:52:59.072Z,23.90
2022-08-18T15:54:01.863Z,24.00
2022-08-18T15:55:04.102Z,24.00
2022-08-18T15:56:20.897Z,24.10
2022-08-18T15:57:39.151Z,24.10
2022-08-18T15:58:42.441Z,24.20
2022-08-18T15:59:44.890Z,24.20
2022-08-18T16:00:52.525Z,24.20
2022-08-18T16:01:55.487Z,24.30
2022-08-18T16:03:08.911Z,24.40
2022-08-18T16:04:11.131Z,24.40
2022-08-18T16:05:14.150Z,24.40
2022-08-18T16:06:20.477Z,24.30
2022-08-18T16:07:25.210Z,24.30
2022-08-18T16:08:43.619Z,24.30
2022-08-18T16:09:45.682Z,24.30
2022-08-18T16:10:48.446Z,24.30
2022-08-18T16:11:50.605Z,24.30
2022-08-18T16:12:52.779Z,24.20
2022-08-18T16:13:55.020Z,24.20
2022-08-18T16:15:00.516Z,24.20
2022-08-18T16:16:10.607Z,24.20
2022-08-18T16:17:23.726Z,24.20
2022-08-18T16:18:32.029Z,24.20
2022-08-18T16:19:34.176Z,24.30